Time;durP1;ratioP1;P1;durP2;ratioP2;P2;SDS_P1;SDS_P2;PMS_P1;PMS_P2;Temp;Humidity;BMP_temperature;BMP_pressure;BME280_temperature;BME280_humidity;BME280_pressure;Samples;Min_cycle;Max_cycle;Signal;HPM_P1;HPM_P2
2022/04/03 00:01:20;;;;;;;;;;;;;;;-0.91;90.33;96462.28;4879382;29;19957;-74
2022/04/03 00:03:46;;;;;;;;;;;;;;;-0.91;89.92;96471.78;4879594;29;19983;-75
2022/04/03 00:06:12;;;;;;;;;;;;;;;-0.93;90.15;96469.34;4879373;29;20003;-74
2022/04/03 00:08:38;;;;;;;;;;;;;;;-0.96;90.04;96472.22;4879494;29;19957;-75
2022/04/03 00:11:04;;;;;;;;;;;;;;;-0.95;90.63;96467.88;4882827;29;19952;-75
2022/04/03 00:13:30;;;;;;;;;;;;;;;-0.93;90.45;96474.50;4881477;29;19967;-74
2022/04/03 00:15:56;;;;;;;;;;;;;;;-0.90;90.34;96474.22;4882746;29;20046;-75
2022/04/03 00:18:22;;;;;;;;;;;;;;;-0.86;90.09;96470.41;4882484;29;19986;-75
2022/04/03 00:20:48;;;;;;;;;;;;;;;-0.83;90.60;96462.38;4882902;29;19966;-76
2022/04/03 00:23:14;;;;;;;;;;;;;;;-0.84;90.14;96475.38;4882455;29;19964;-75
2022/04/03 00:25:39;;;;;;;;;;;;;;;-0.86;90.09;96470.41;4882762;29;19957;-75
2022/04/03 00:28:06;;;;;;;;;;;;;;;-0.86;89.66;96461.84;4882458;29;20477;-75
2022/04/03 00:30:32;;;;;;;;;;;;;;;-0.87;89.83;96468.75;4882412;29;19958;-75
2022/04/03 00:32:58;;;;;;;;;;;;;;;-0.86;89.75;96472.16;4882237;29;20452;-74
2022/04/03 00:35:24;;;;;;;;;;;;;;;-0.85;89.53;96471.22;4882529;29;19963;-73
2022/04/03 00:37:50;;;;;;;;;;;;;;;-0.85;89.51;96476.34;4882237;29;20428;-74
2022/04/03 00:40:17;;;;;;;;;;;;;;;-0.91;89.58;96477.75;4882363;29;19960;-74
2022/04/03 00:42:43;;;;;;;;;;;;;;;-0.94;89.95;96472.88;4882101;29;19964;-74
2022/04/03 00:45:09;;;;;;;;;;;;;;;-0.92;89.93;96475.34;4882373;29;20015;-75
2022/04/03 00:47:35;;;;;;;;;;;;;;;-0.90;90.08;96476.00;4882452;29;19973;-74
2022/04/03 00:50:02;;;;;;;;;;;;;;;-0.86;90.16;96485.84;4882104;29;19967;-75
2022/04/03 00:52:28;;;;;;;;;;;;;;;-0.84;89.59;96477.97;4882191;29;19971;-74
2022/04/03 00:54:54;;;;;;;;;;;;;;;-0.82;89.75;96483.78;4882166;29;20028;-74
2022/04/03 00:57:21;;;;;;;;;;;;;;;-0.79;89.66;96480.91;4881896;29;19965;-74
2022/04/03 00:59:48;;;;;;;;;;;;;;;-0.82;89.31;96476.88;4881862;29;19957;-74
2022/04/03 01:02:14;;;;;;;;;;;;;;;-0.83;89.42;96480.41;4882304;29;19956;-74
2022/04/03 01:04:40;;;;;;;;;;;;;;;-0.83;89.34;96488.13;4881772;29;20505;-74
2022/04/03 01:07:07;;;;;;;;;;;;;;;-0.84;89.04;96481.38;4881734;29;20477;-74
2022/04/03 01:09:33;;;;;;;;;;;;;;;-0.87;88.89;96485.97;4881888;29;20314;-75
2022/04/03 01:11:59;;;;;;;;;;;;;;;-0.88;89.40;96490.34;4881591;29;19963;-75
2022/04/03 01:14:35;;;;;;;;;;;;;;;-0.90;89.39;96489.66;4881599;29;19963;-75
2022/04/03 01:17:01;;;;;;;;;;;;;;;-0.88;89.82;96497.25;4881690;29;19973;-75
2022/04/03 01:19:27;;;;;;;;;;;;;;;-0.88;89.54;96482.63;4881717;29;20326;-75
2022/04/03 01:21:53;;;;;;;;;;;;;;;-0.85;89.84;96490.03;4881281;29;19966;-75
2022/04/03 01:24:20;;;;;;;;;;;;;;;-0.81;89.55;96490.56;4881552;29;19983;-75
2022/04/03 01:26:47;;;;;;;;;;;;;;;-0.75;89.50;96489.97;4881365;29;19956;-75
2022/04/03 01:29:13;;;;;;;;;;;;;;;-0.74;88.91;96493.34;4881540;29;19968;-75
2022/04/03 01:31:39;;;;;;;;;;;;;;;-0.72;89.27;96502.53;4881534;29;20331;-75
2022/04/03 01:34:05;;;;;;;;;;;;;;;-0.70;89.18;96497.25;4881549;29;20057;-75
2022/04/03 01:36:31;;;;;;;;;;;;;;;-0.68;89.18;96488.44;4881290;29;19964;-75
2022/04/03 01:38:57;;;;;;;;;;;;;;;-0.66;88.76;96494.25;4881374;29;20375;-75
2022/04/03 01:41:22;;;;;;;;;;;;;;;-0.63;88.65;96493.13;4881115;29;19962;-75
2022/04/03 01:43:48;;;;;;;;;;;;;;;-0.59;88.63;96498.81;4865107;29;20003;-75
2022/04/03 01:46:14;;;;;;;;;;;;;;;-0.56;88.81;96490.81;4881164;29;20483;-75
2022/04/03 01:48:40;;;;;;;;;;;;;;;-0.52;88.93;96498.09;4881561;29;19990;-75
2022/04/03 01:51:06;;;;;;;;;;;;;;;-0.49;88.38;96494.41;4881006;29;19968;-75
2022/04/03 01:53:32;;;;;;;;;;;;;;;-0.51;88.10;96491.16;4880825;29;19965;-75
2022/04/03 01:55:59;;;;;;;;;;;;;;;-0.53;88.36;96493.06;4880826;29;20047;-75
2022/04/03 01:58:24;;;;;;;;;;;;;;;-0.56;88.02;96488.22;4881036;29;19959;-75
2022/04/03 02:00:50;;;;;;;;;;;;;;;-0.55;88.12;96488.06;4880801;29;19951;-75
2022/04/03 02:03:17;;;;;;;;;;;;;;;-0.56;88.40;96490.81;4880896;29;20003;-75
2022/04/03 02:05:43;;;;;;;;;;;;;;;-0.52;88.34;96499.84;4880878;29;19984;-74
2022/04/03 02:08:09;;;;;;;;;;;;;;;-0.52;87.89;96490.34;4880275;29;19970;-74
2022/04/03 02:10:35;;;;;;;;;;;;;;;-0.52;87.70;96498.09;4880623;29;20400;-74
2022/04/03 02:13:01;;;;;;;;;;;;;;;-0.50;88.04;96503.09;4880561;29;19968;-74
2022/04/03 02:15:27;;;;;;;;;;;;;;;-0.53;87.57;96500.78;4864112;29;19962;-74
2022/04/03 02:17:53;;;;;;;;;;;;;;;-0.55;87.80;96505.28;4880804;29;19984;-75
2022/04/03 02:20:19;;;;;;;;;;;;;;;-0.55;88.09;96500.94;4880488;29;19967;-76
2022/04/03 02:23:14;;;;;;;;;;;;;;;-0.51;87.88;96498.88;4812587;29;19958;-75
2022/04/03 02:25:40;;;;;;;;;;;;;;;-0.54;87.47;96501.78;4813409;29;20042;-75
2022/04/03 02:28:08;;;;;;;;;;;;;;;-0.57;87.70;96500.28;4868873;29;19956;-75
2022/04/03 02:30:34;;;;;;;;;;;;;;;-0.57;87.88;96508.00;4880422;29;19966;-74
2022/04/03 02:33:00;;;;;;;;;;;;;;;-0.57;88.08;96510.56;4879642;29;20421;-74
2022/04/03 02:35:26;;;;;;;;;;;;;;;-0.56;87.99;96512.22;4880214;29;20482;-74
2022/04/03 02:37:53;;;;;;;;;;;;;;;-0.52;88.18;96505.81;4880612;29;19964;-74
2022/04/03 02:40:19;;;;;;;;;;;;;;;-0.50;87.70;96508.25;4879437;29;19961;-74
2022/04/03 02:42:45;;;;;;;;;;;;;;;-0.47;87.82;96510.53;4880302;29;19966;-74
2022/04/03 02:45:11;;;;;;;;;;;;;;;-0.45;87.76;96513.75;4879971;29;20024;-74
2022/04/03 02:47:37;;;;;;;;;;;;;;;-0.45;87.35;96511.97;4880208;29;19993;-74
2022/04/03 02:50:05;;;;;;;;;;;;;;;-0.43;87.35;96520.38;4880372;29;19968;-74
2022/04/03 02:52:31;;;;;;;;;;;;;;;-0.40;87.20;96521.84;4880060;29;20330;-75
2022/04/03 02:54:57;;;;;;;;;;;;;;;-0.41;86.96;96518.47;4880106;29;19959;-75
2022/04/03 02:57:22;;;;;;;;;;;;;;;-0.43;87.29;96510.06;4880349;29;20012;-75
2022/04/03 02:59:48;;;;;;;;;;;;;;;-0.43;87.01;96517.00;4880052;29;19968;-76
2022/04/03 03:02:14;;;;;;;;;;;;;;;-0.47;87.07;96519.03;4879610;29;19963;-75
2022/04/03 03:04:40;;;;;;;;;;;;;;;-0.50;87.41;96521.13;4879248;29;20434;-75
2022/04/03 03:07:07;;;;;;;;;;;;;;;-0.51;87.58;96520.28;4880008;29;19965;-75
2022/04/03 03:09:33;;;;;;;;;;;;;;;-0.49;87.61;96522.72;4879011;29;20358;-76
2022/04/03 03:12:00;;;;;;;;;;;;;;;-0.48;87.74;96517.44;4879758;29;19960;-75
2022/04/03 03:14:29;;;;;;;;;;;;;;;-0.48;87.46;96512.28;4879998;29;19973;-75
2022/04/03 03:16:55;;;;;;;;;;;;;;;-0.44;87.75;96507.66;4879533;29;19959;-75
2022/04/03 03:19:21;;;;;;;;;;;;;;;-0.43;87.74;96510.06;4880033;29;19979;-77
2022/04/03 03:21:47;;;;;;;;;;;;;;;-0.43;86.85;96501.53;4879620;29;19959;-75
2022/04/03 03:24:13;;;;;;;;;;;;;;;-0.45;87.41;96511.19;4879697;29;19972;-74
2022/04/03 03:26:39;;;;;;;;;;;;;;;-0.45;87.77;96514.56;4863263;29;19959;-74
2022/04/03 03:29:05;;;;;;;;;;;;;;;-0.44;87.74;96511.03;4879651;29;20074;-74
2022/04/03 03:31:46;;;;;;;;;;;;;;;-0.43;87.59;96510.06;4879436;29;19960;-74
2022/04/03 03:34:12;;;;;;;;;;;;;;;-0.42;87.65;96503.16;4879692;29;20331;-75
2022/04/03 03:36:37;;;;;;;;;;;;;;;-0.41;87.67;96515.09;4880023;29;19957;-75
2022/04/03 03:39:03;;;;;;;;;;;;;;;-0.42;87.30;96510.88;4879709;29;20438;-75
2022/04/03 03:41:29;;;;;;;;;;;;;;;-0.42;87.34;96521.19;4879631;29;20049;-75
2022/04/03 03:43:55;;;;;;;;;;;;;;;-0.43;87.13;96514.41;4881543;29;19971;-75
2022/04/03 03:46:21;;;;;;;;;;;;;;;-0.44;87.25;96516.19;4883111;29;19965;-75
2022/04/03 03:48:47;;;;;;;;;;;;;;;-0.45;87.10;96511.19;4866860;29;19958;-75
2022/04/03 03:51:13;;;;;;;;;;;;;;;-0.48;87.28;96514.88;4882674;29;20024;-75
2022/04/03 03:53:39;;;;;;;;;;;;;;;-0.47;87.53;96511.31;4883159;29;20441;-75
2022/04/03 03:56:05;;;;;;;;;;;;;;;-0.45;87.70;96526.63;4882595;29;19955;-75
2022/04/03 03:58:31;;;;;;;;;;;;;;;-0.42;87.79;96532.31;4883127;29;19959;-75
2022/04/03 04:00:57;;;;;;;;;;;;;;;-0.43;87.25;96527.31;4883121;29;20403;-75
2022/04/03 04:03:23;;;;;;;;;;;;;;;-0.44;87.45;96530.84;4883036;29;19961;-75
2022/04/03 04:05:49;;;;;;;;;;;;;;;-0.44;87.33;96534.22;4883015;29;20498;-75
2022/04/03 04:08:15;;;;;;;;;;;;;;;-0.44;87.08;96533.44;4882824;29;20343;-75
2022/04/03 04:10:41;;;;;;;;;;;;;;;-0.42;87.60;96532.31;4882897;29;19987;-75
2022/04/03 04:13:07;;;;;;;;;;;;;;;-0.43;87.32;96535.84;4882612;29;20348;-75
2022/04/03 04:15:33;;;;;;;;;;;;;;;-0.46;87.13;96536.16;4882989;29;19965;-75
2022/04/03 04:17:59;;;;;;;;;;;;;;;-0.48;87.22;96540.63;4882235;29;19956;-74
2022/04/03 04:20:26;;;;;;;;;;;;;;;-0.49;87.15;96539.00;4882899;29;20023;-75
2022/04/03 04:22:57;;;;;;;;;;;;;;;-0.51;87.23;96538.31;4882571;29;19969;-75
2022/04/03 04:25:23;;;;;;;;;;;;;;;-0.56;87.34;96535.41;4882610;29;19986;-76
2022/04/03 04:27:49;;;;;;;;;;;;;;;-0.58;87.35;96539.06;4882431;29;20395;-75
2022/04/03 04:30:15;;;;;;;;;;;;;;;-0.59;87.50;96543.41;4882939;29;20394;-75
2022/04/03 04:32:42;;;;;;;;;;;;;;;-0.62;87.98;96546.28;4881774;29;19957;-75
2022/04/03 04:35:08;;;;;;;;;;;;;;;-0.62;87.75;96546.28;4882889;29;19955;-74
2022/04/03 04:37:34;;;;;;;;;;;;;;;-0.66;87.81;96547.53;4882332;29;19962;-75
2022/04/03 04:40:01;;;;;;;;;;;;;;;-0.68;88.09;96545.09;4882381;29;19962;-75
2022/04/03 04:42:28;;;;;;;;;;;;;;;-0.67;88.23;96548.50;4882372;29;19964;-75
2022/04/03 04:44:53;;;;;;;;;;;;;;;-0.72;87.37;96548.09;4882082;29;20468;-75
2022/04/03 04:47:19;;;;;;;;;;;;;;;-0.75;87.85;96553.56;4881039;29;19957;-75
2022/04/03 04:49:45;;;;;;;;;;;;;;;-0.75;87.85;96554.34;4882291;29;19964;-75
2022/04/03 04:52:11;;;;;;;;;;;;;;;-0.78;87.64;96556.41;4882178;29;19971;-75
2022/04/03 04:54:38;;;;;;;;;;;;;;;-0.83;87.57;96555.06;4881409;29;19961;-74
2022/04/03 04:57:04;;;;;;;;;;;;;;;-0.84;87.78;96555.19;4881700;29;20307;-75
2022/04/03 04:59:30;;;;;;;;;;;;;;;-0.86;88.29;96564.81;4882525;29;20006;-77
2022/04/03 05:01:58;;;;;;;;;;;;;;;-0.86;88.14;96567.41;4882090;29;20401;-75
2022/04/03 05:04:24;;;;;;;;;;;;;;;-0.86;88.24;96569.97;4881792;29;20328;-75
2022/04/03 05:06:51;;;;;;;;;;;;;;;-0.85;88.20;96569.03;4882166;29;20010;-75
2022/04/03 05:09:18;;;;;;;;;;;;;;;-0.85;87.85;96572.41;4881868;29;19973;-75
2022/04/03 05:11:46;;;;;;;;;;;;;;;-0.85;88.17;96579.34;4881710;29;20402;-73
2022/04/03 05:14:13;;;;;;;;;;;;;;;-0.83;88.23;96585.97;4881081;29;19969;-74
2022/04/03 05:16:39;;;;;;;;;;;;;;;-0.79;88.30;96578.78;4881496;29;19965;-74
2022/04/03 05:19:05;;;;;;;;;;;;;;;-0.76;88.27;96585.38;4881444;29;20389;-74
2022/04/03 05:21:31;;;;;;;;;;;;;;;-0.78;87.46;96588.09;4881656;29;20409;-74
2022/04/03 05:23:56;;;;;;;;;;;;;;;-0.82;88.02;96592.75;4881279;29;20014;-74
2022/04/03 05:26:22;;;;;;;;;;;;;;;-0.79;88.42;96588.25;4881359;29;19976;-74
2022/04/03 05:28:48;;;;;;;;;;;;;;;-0.78;87.89;96595.81;4881372;29;20043;-74
2022/04/03 05:31:14;;;;;;;;;;;;;;;-0.79;87.88;96596.00;4881874;29;20040;-74
2022/04/03 05:33:41;;;;;;;;;;;;;;;-0.80;87.54;96592.56;4881415;29;19971;-74
2022/04/03 05:36:36;;;;;;;;;;;;;;;-0.79;87.75;96596.78;4830735;29;19966;-77
2022/04/03 05:39:04;;;;;;;;;;;;;;;-0.77;87.64;96594.88;4881354;29;20418;-74
2022/04/03 05:41:30;;;;;;;;;;;;;;;-0.80;87.52;96600.31;4880943;29;19965;-74
2022/04/03 05:43:56;;;;;;;;;;;;;;;-0.80;87.75;96600.31;4881133;29;19958;-74
2022/04/03 05:46:23;;;;;;;;;;;;;;;-0.78;87.32;96608.69;4881261;29;19977;-74
2022/04/03 05:48:48;;;;;;;;;;;;;;;-0.78;87.49;96616.41;4881133;29;19964;-74
2022/04/03 05:51:14;;;;;;;;;;;;;;;-0.78;87.30;96615.63;4881016;29;20448;-75
2022/04/03 05:53:41;;;;;;;;;;;;;;;-0.79;87.37;96614.81;4881324;29;20100;-75
2022/04/03 05:56:07;;;;;;;;;;;;;;;-0.80;87.54;96618.31;4881061;29;19977;-75
2022/04/03 05:58:33;;;;;;;;;;;;;;;-0.80;87.31;96623.47;4881111;29;19955;-74
2022/04/03 06:00:59;;;;;;;;;;;;;;;-0.80;87.30;96626.06;4880870;29;20390;-74
2022/04/03 06:03:25;;;;;;;;;;;;;;;-0.80;87.43;96623.47;4880877;29;20042;-75
2022/04/03 06:05:51;;;;;;;;;;;;;;;-0.79;87.57;96630.25;4880636;29;19970;-74
2022/04/03 06:08:17;;;;;;;;;;;;;;;-0.77;87.70;96625.78;4863908;29;20095;-74
2022/04/03 06:10:43;;;;;;;;;;;;;;;-0.76;87.27;96627.38;4880642;29;19958;-74
2022/04/03 06:13:12;;;;;;;;;;;;;;;-0.72;87.71;96633.06;4881023;29;19972;-74
2022/04/03 06:15:39;;;;;;;;;;;;;;;-0.72;87.23;96635.66;4880627;29;19986;-75
2022/04/03 06:18:05;;;;;;;;;;;;;;;-0.72;87.09;96631.31;4880527;29;19968;-76
2022/04/03 06:20:31;;;;;;;;;;;;;;;-0.71;87.38;96632.94;4881032;29;19965;-75
2022/04/03 06:22:57;;;;;;;;;;;;;;;-0.68;87.15;96634.41;4880699;29;19957;-74
2022/04/03 06:25:23;;;;;;;;;;;;;;;-0.66;87.05;96638.47;4880425;29;19975;-74
2022/04/03 06:27:51;;;;;;;;;;;;;;;-0.58;87.13;96636.97;4880548;29;20053;-75
2022/04/03 06:30:17;;;;;;;;;;;;;;;-0.51;86.97;96643.13;4880441;29;19963;-75
2022/04/03 06:32:43;;;;;;;;;;;;;;;-0.44;86.99;96639.84;4880297;29;19958;-76
2022/04/03 06:35:08;;;;;;;;;;;;;;;-0.34;86.22;96646.72;4880377;29;19957;-75
2022/04/03 06:37:35;;;;;;;;;;;;;;;-0.28;85.83;96646.94;4880271;29;19955;-75
2022/04/03 06:40:01;;;;;;;;;;;;;;;-0.22;85.49;96641.22;4880288;29;19964;-75
2022/04/03 06:42:27;;;;;;;;;;;;;;;-0.18;85.29;96646.09;4880434;29;19964;-75
2022/04/03 06:44:53;;;;;;;;;;;;;;;-0.15;85.33;96650.94;4863407;29;19968;-77
2022/04/03 06:47:19;;;;;;;;;;;;;;;-0.12;85.32;96651.47;4880240;29;19968;-75
2022/04/03 06:49:45;;;;;;;;;;;;;;;-0.06;84.95;96652.66;4879819;29;20430;-75
2022/04/03 06:52:11;;;;;;;;;;;;;;;-0.03;84.96;96655.72;4863679;29;20023;-75
2022/04/03 06:54:37;;;;;;;;;;;;;;;-0.02;84.25;96654.78;4880205;29;20051;-75
2022/04/03 06:57:03;;;;;;;;;;;;;;;-0.01;83.98;96660.75;4880324;29;20415;-75
2022/04/03 06:59:29;;;;;;;;;;;;;;;-0.03;84.27;96668.63;4879530;29;19960;-75
2022/04/03 07:01:55;;;;;;;;;;;;;;;0.00;84.81;96667.53;4879970;29;20329;-75
2022/04/03 07:04:21;;;;;;;;;;;;;;;0.08;84.43;96666.78;4879780;29;19959;-76
2022/04/03 07:06:47;;;;;;;;;;;;;;;0.12;83.80;96670.69;4879762;29;19974;-75
2022/04/03 07:09:13;;;;;;;;;;;;;;;0.14;83.72;96668.78;4880196;29;20009;-75
2022/04/03 07:11:40;;;;;;;;;;;;;;;0.15;84.21;96671.22;4879822;29;19953;-75
2022/04/03 07:14:06;;;;;;;;;;;;;;;0.19;83.92;96671.75;4879719;29;19957;-75
2022/04/03 07:16:31;;;;;;;;;;;;;;;0.27;84.10;96676.97;4879669;29;19971;-75
2022/04/03 07:18:57;;;;;;;;;;;;;;;0.29;83.25;96684.56;4884264;29;20444;-74
2022/04/03 07:21:23;;;;;;;;;;;;;;;0.32;83.63;96679.94;4885887;29;20065;-75
2022/04/03 07:23:49;;;;;;;;;;;;;;;0.36;83.54;96683.84;4886306;29;19958;-75
2022/04/03 07:26:15;;;;;;;;;;;;;;;0.44;83.45;96693.41;4885696;29;20014;-75
2022/04/03 07:28:41;;;;;;;;;;;;;;;0.53;82.78;96686.56;4886063;29;20336;-75
2022/04/03 07:31:08;;;;;;;;;;;;;;;0.63;82.73;96689.03;4885744;29;19963;-75
2022/04/03 07:33:34;;;;;;;;;;;;;;;0.71;82.19;96686.53;4885713;29;20408;-75
2022/04/03 07:36:01;;;;;;;;;;;;;;;0.78;81.98;96690.94;4885788;29;19964;-75
2022/04/03 07:38:27;;;;;;;;;;;;;;;0.81;81.21;96700.97;4885850;29;19951;-75
2022/04/03 07:40:53;;;;;;;;;;;;;;;0.85;80.50;96698.91;4885813;29;19952;-75
2022/04/03 07:43:19;;;;;;;;;;;;;;;0.92;81.41;96701.69;4885776;29;20057;-76
2022/04/03 07:45:45;;;;;;;;;;;;;;;1.02;81.01;96700.63;4885710;29;20035;-75
2022/04/03 07:48:11;;;;;;;;;;;;;;;1.08;81.01;96712.13;4886019;29;20403;-75
2022/04/03 07:50:38;;;;;;;;;;;;;;;1.10;80.82;96711.97;4885718;29;19968;-75
2022/04/03 07:53:04;;;;;;;;;;;;;;;1.12;80.21;96717.81;4885313;29;19963;-75
2022/04/03 07:55:30;;;;;;;;;;;;;;;1.11;79.58;96716.97;4885939;29;19965;-75
2022/04/03 07:57:56;;;;;;;;;;;;;;;1.20;80.33;96715.28;4885575;29;19961;-75
2022/04/03 08:00:22;;;;;;;;;;;;;;;1.23;80.22;96716.75;4885697;29;19969;-75
2022/04/03 08:02:48;;;;;;;;;;;;;;;1.20;79.63;96723.81;4885781;29;20467;-76
2022/04/03 08:05:14;;;;;;;;;;;;;;;1.21;80.06;96724.63;4885528;29;19974;-75
2022/04/03 08:07:44;;;;;;;;;;;;;;;1.20;79.96;96730.78;4885587;29;20314;-75
2022/04/03 08:10:12;;;;;;;;;;;;;;;1.14;79.68;96731.38;4885753;29;19953;-75
2022/04/03 08:12:39;;;;;;;;;;;;;;;1.10;79.64;96735.22;4885627;29;19959;-75
2022/04/03 08:15:05;;;;;;;;;;;;;;;1.13;79.78;96734.91;4885647;29;19958;-75
2022/04/03 08:17:32;;;;;;;;;;;;;;;1.16;78.28;96737.22;4885665;29;19959;-75
2022/04/03 08:19:58;;;;;;;;;;;;;;;1.14;78.57;96739.94;4885295;29;20382;-75
2022/04/03 08:22:24;;;;;;;;;;;;;;;1.27;79.26;96743.88;4885509;29;19958;-75
2022/04/03 08:24:50;;;;;;;;;;;;;;;1.32;78.79;96737.28;4885263;29;19999;-75
2022/04/03 08:27:16;;;;;;;;;;;;;;;1.31;78.62;96745.22;4885482;29;19961;-75
2022/04/03 08:29:43;;;;;;;;;;;;;;;1.26;78.91;96745.66;4882791;29;19950;-75
2022/04/03 08:32:08;;;;;;;;;;;;;;;1.23;78.52;96748.53;4882916;29;19975;-75
2022/04/03 08:34:34;;;;;;;;;;;;;;;1.21;79.09;96753.06;4882250;29;20424;-75
2022/04/03 08:37:00;;;;;;;;;;;;;;;1.24;78.30;96757.94;4865841;29;20024;-75
2022/04/03 08:39:26;;;;;;;;;;;;;;;1.36;77.52;96746.34;4882486;29;19969;-75
2022/04/03 08:41:52;;;;;;;;;;;;;;;1.47;77.81;96750.47;4882266;29;19952;-75
2022/04/03 08:44:19;;;;;;;;;;;;;;;1.60;78.15;96755.22;4882661;29;19969;-75
2022/04/03 08:46:45;;;;;;;;;;;;;;;1.68;76.00;96739.75;4881960;29;19966;-75
2022/04/03 08:49:12;;;;;;;;;;;;;;;1.81;79.37;96760.00;4882495;29;19966;-75
2022/04/03 08:51:39;;;;;;;;;;;;;;;2.02;76.96;96737.13;4882167;29;19949;-75
2022/04/03 08:54:05;;;;;;;;;;;;;;;2.09;76.65;96742.50;4882272;29;20449;-75
2022/04/03 08:56:31;;;;;;;;;;;;;;;2.07;76.52;96749.59;4882148;29;19954;-75
2022/04/03 08:58:58;;;;;;;;;;;;;;;2.07;76.47;96746.22;4882337;29;19987;-75
2022/04/03 09:01:24;;;;;;;;;;;;;;;2.27;75.87;96751.91;4882190;29;19964;-75
2022/04/03 09:03:50;;;;;;;;;;;;;;;2.40;73.90;96736.75;4882122;29;19955;-74
2022/04/03 09:06:17;;;;;;;;;;;;;;;2.40;73.69;96734.97;4881721;29;19977;-75
2022/04/03 09:08:43;;;;;;;;;;;;;;;2.34;73.82;96737.38;4881976;29;19956;-76
2022/04/03 09:11:09;;;;;;;;;;;;;;;2.23;74.07;96747.06;4881698;29;19954;-75
2022/04/03 09:13:36;;;;;;;;;;;;;;;2.05;74.28;96745.56;4882149;29;20410;-75
2022/04/03 09:16:02;;;;;;;;;;;;;;;1.91;74.45;96746.94;4881800;29;20419;-75
2022/04/03 09:18:47;;;;;;;;;;;;;;;1.78;75.05;96753.34;4881898;29;19990;-75
2022/04/03 09:21:14;;;;;;;;;;;;;;;1.67;75.29;96756.22;4881698;29;19969;-75
2022/04/03 09:23:59;;;;;;;;;;;;;;;1.60;75.51;96757.81;4865135;29;19969;-75
2022/04/03 09:26:25;;;;;;;;;;;;;;;1.50;75.60;96757.91;4870521;29;19985;-75
2022/04/03 09:29:04;;;;;;;;;;;;;;;1.42;74.71;96761.25;4882108;29;19967;-75
2022/04/03 09:31:30;;;;;;;;;;;;;;;1.41;75.85;96769.19;4880973;29;19960;-75
2022/04/03 09:34:00;;;;;;;;;;;;;;;1.30;74.67;96759.91;4881272;29;19961;-75
2022/04/03 09:36:30;;;;;;;;;;;;;;;1.23;76.83;96768.41;4880924;29;19986;-78
2022/04/03 09:39:15;;;;;;;;;;;;;;;1.21;76.82;96776.31;4872535;29;19956;-74
2022/04/03 09:42:01;;;;;;;;;;;;;;;1.20;76.19;96767.75;4870455;29;19956;-75
2022/04/03 09:44:26;;;;;;;;;;;;;;;1.23;76.27;96776.97;4881134;29;19955;-75
2022/04/03 09:47:14;;;;;;;;;;;;;;;1.41;75.98;96764.81;4881026;29;19967;-76
2022/04/03 09:49:40;;;;;;;;;;;;;;;1.97;75.04;96769.59;4870170;29;19961;-75
2022/04/03 09:52:06;;;;;;;;;;;;;;;2.55;74.21;96752.47;4881111;29;19965;-75
2022/04/03 09:54:32;;;;;;;;;;;;;;;3.15;72.69;96735.78;4881083;29;19955;-76
2022/04/03 09:57:17;;;;;;;;;;;;;;;3.70;73.66;96745.41;4880841;29;19961;-75
2022/04/03 09:59:53;;;;;;;;;;;;;;;3.65;71.63;96738.13;4880840;29;19980;-73
2022/04/03 10:02:24;;;;;;;;;;;;;;;3.31;69.21;96712.44;4864447;29;20316;-74
2022/04/03 10:04:51;;;;;;;;;;;;;;;3.05;70.69;96733.38;4880725;29;19960;-76
2022/04/03 10:07:17;;;;;;;;;;;;;;;2.81;70.53;96736.78;4880708;29;19972;-76
2022/04/03 10:09:47;;;;;;;;;;;;;;;2.47;69.49;96740.31;4880401;29;19972;-76
2022/04/03 10:12:14;;;;;;;;;;;;;;;2.22;70.01;96742.84;4880096;29;19970;-76
2022/04/03 10:14:40;;;;;;;;;;;;;;;2.07;72.99;96772.88;4880586;29;19956;-76
2022/04/03 10:17:06;;;;;;;;;;;;;;;1.91;71.97;96765.88;4880599;29;19976;-75
2022/04/03 10:19:32;;;;;;;;;;;;;;;1.79;73.09;96775.69;4880678;29;19984;-75
2022/04/03 10:21:59;;;;;;;;;;;;;;;1.72;72.69;96769.50;4880610;29;19976;-75
2022/04/03 10:24:27;;;;;;;;;;;;;;;1.65;72.74;96768.50;4880507;29;19975;-75
2022/04/03 10:27:23;;;;;;;;;;;;;;;1.58;72.67;96767.50;4880394;29;19985;-75
2022/04/03 10:29:50;;;;;;;;;;;;;;;1.50;72.02;96759.69;4852505;29;19971;-73
2022/04/03 10:32:27;;;;;;;;;;;;;;;1.41;72.29;96767.41;4880477;29;19963;-75
2022/04/03 10:34:55;;;;;;;;;;;;;;;1.36;72.95;96767.03;4880297;29;20354;-75
2022/04/03 10:37:25;;;;;;;;;;;;;;;1.35;72.30;96764.63;4880466;29;19956;-75
2022/04/03 10:39:52;;;;;;;;;;;;;;;1.38;72.46;96765.09;4880465;29;19969;-75
2022/04/03 10:42:24;;;;;;;;;;;;;;;1.41;72.08;96767.41;4880311;29;20442;-75
2022/04/03 10:45:09;;;;;;;;;;;;;;;1.45;71.78;96760.16;4879330;29;19963;-75
2022/04/03 10:47:35;;;;;;;;;;;;;;;1.49;71.91;96758.06;4880373;29;19978;-75
2022/04/03 10:50:02;;;;;;;;;;;;;;;1.45;70.40;96742.06;4880443;29;20344;-75
2022/04/03 10:52:37;;;;;;;;;;;;;;;1.41;71.44;96749.31;4879840;29;19963;-75
2022/04/03 10:55:12;;;;;;;;;;;;;;;1.35;70.34;96741.34;4880062;29;19959;-75
2022/04/03 10:57:45;;;;;;;;;;;;;;;1.33;70.01;96736.34;4879861;29;19955;-75
2022/04/03 11:00:13;;;;;;;;;;;;;;;1.31;70.91;96751.19;4869152;29;19960;-75
2022/04/03 11:02:43;;;;;;;;;;;;;;;1.31;71.41;96752.97;4880111;29;19949;-75
2022/04/03 11:05:27;;;;;;;;;;;;;;;1.35;72.48;96762.03;4880051;29;19965;-75
2022/04/03 11:07:52;;;;;;;;;;;;;;;1.39;72.84;96769.31;4870010;29;19962;-75
2022/04/03 11:10:38;;;;;;;;;;;;;;;1.46;72.39;96755.78;4879837;29;19956;-75
2022/04/03 11:13:08;;;;;;;;;;;;;;;1.50;72.22;96750.16;4880201;29;20337;-75
2022/04/03 11:16:03;;;;;;;;;;;;;;;1.53;71.37;96751.63;4879992;29;20075;-75
2022/04/03 11:18:36;;;;;;;;;;;;;;;1.55;71.99;96752.28;4851946;29;20001;-75
2022/04/03 11:21:11;;;;;;;;;;;;;;;1.55;68.23;96718.69;4879827;29;20460;-75
2022/04/03 11:23:42;;;;;;;;;;;;;;;1.53;69.70;96739.50;4879985;29;20465;-75
2022/04/03 11:26:08;;;;;;;;;;;;;;;1.47;69.21;96737.56;4879836;29;19974;-75
2022/04/03 11:28:37;;;;;;;;;;;;;;;1.38;69.71;96735.88;4879579;29;20439;-75
2022/04/03 11:31:04;;;;;;;;;;;;;;;1.31;70.09;96743.44;4880108;29;19985;-75
2022/04/03 11:33:31;;;;;;;;;;;;;;;1.27;70.75;96756.81;4879563;29;19960;-75
2022/04/03 11:36:06;;;;;;;;;;;;;;;1.20;69.69;96741.09;4879571;29;20428;-75
2022/04/03 11:38:33;;;;;;;;;;;;;;;1.07;67.05;96713.09;4879652;29;20509;-75
2022/04/03 11:41:01;;;;;;;;;;;;;;;1.04;70.86;96762.47;4879479;29;19964;-75
2022/04/03 11:43:27;;;;;;;;;;;;;;;1.09;72.38;96764.59;4879658;29;20322;-74
2022/04/03 11:45:57;;;;;;;;;;;;;;;1.31;75.37;96764.09;4879597;29;19969;-72
2022/04/03 11:48:30;;;;;;;;;;;;;;;1.75;66.70;96675.31;4879526;29;19969;-73
2022/04/03 11:51:07;;;;;;;;;;;;;;;1.85;70.36;96711.38;4879517;29;19961;-75
2022/04/03 11:53:33;;;;;;;;;;;;;;;1.91;72.00;96732.25;4879439;29;20330;-75
2022/04/03 11:56:12;;;;;;;;;;;;;;;1.83;67.70;96689.06;4880246;29;19960;-75
2022/04/03 11:58:39;;;;;;;;;;;;;;;1.75;67.26;96683.06;4879393;29;19954;-75
2022/04/03 12:01:05;;;;;;;;;;;;;;;1.75;66.83;96681.28;4879511;29;19969;-75
2022/04/03 12:03:33;;;;;;;;;;;;;;;1.74;68.25;96695.19;4879426;29;19964;-75
2022/04/03 12:06:26;;;;;;;;;;;;;;;1.86;75.07;96760.34;4861244;29;20073;-73
2022/04/03 12:08:52;;;;;;;;;;;;;;;2.02;67.90;96695.75;4882220;29;19963;-74
2022/04/03 12:11:25;;;;;;;;;;;;;;;1.97;65.73;96666.16;4882922;29;19995;-74
2022/04/03 12:13:55;;;;;;;;;;;;;;;1.83;69.30;96717.50;4882900;29;19965;-74
2022/04/03 12:16:22;;;;;;;;;;;;;;;1.78;67.69;96691.28;4882799;29;19962;-74
2022/04/03 12:19:15;;;;;;;;;;;;;;;1.76;66.95;96689.84;4882855;29;19981;-74
2022/04/03 12:21:45;;;;;;;;;;;;;;;1.83;69.26;96714.13;4879406;29;19965;-74
2022/04/03 12:24:15;;;;;;;;;;;;;;;1.92;70.48;96727.91;4882711;29;19965;-74
2022/04/03 12:26:51;;;;;;;;;;;;;;;2.08;70.24;96725.38;4882753;29;19967;-74
2022/04/03 12:29:17;;;;;;;;;;;;;;;2.29;74.43;96752.56;4882856;29;19954;-73
2022/04/03 12:31:44;;;;;;;;;;;;;;;2.65;71.20;96716.88;4882398;29;19956;-73
2022/04/03 12:34:11;;;;;;;;;;;;;;;2.82;70.99;96718.50;4882351;29;19968;-73
2022/04/03 12:36:47;;;;;;;;;;;;;;;2.90;69.87;96709.09;4882375;29;20428;-74
2022/04/03 12:39:31;;;;;;;;;;;;;;;2.87;69.64;96694.69;4882512;29;19963;-74
2022/04/03 12:42:08;;;;;;;;;;;;;;;2.79;70.09;96697.28;4882360;29;19966;-72
2022/04/03 12:44:51;;;;;;;;;;;;;;;3.62;88.43;96750.63;4882202;29;19962;-73
2022/04/03 12:47:29;;;;;;;;;;;;;;;4.20;66.92;96650.78;4882282;29;20353;-73
2022/04/03 12:50:05;;;;;;;;;;;;;;;4.39;67.65;96661.69;4882340;29;19966;-75
2022/04/03 12:52:52;;;;;;;;;;;;;;;4.29;60.39;96580.66;4882300;29;19970;-75
2022/04/03 12:55:24;;;;;;;;;;;;;;;3.86;63.94;96635.56;4882027;29;19961;-75